Calico Skies — FGD6481 — position and weather

sailwx.info

Track history (hours):
 
Tides and Currents Weather Stations Pressure Air Temp Water Temp Dewpoint Dewpoint Depression Visibility Wind Speed Wind Dir Waves Ship Positions

Calico Skies

Last reported at 2017-Oct-22 07:16 UTC. Time now 2017-Nov-22 22:13 UTC.
Position N 47°38' W 002°46'.
Warning: this ship's position is 31 days out of date.

Length 13 m.

Type: Sailing vessel. MMSI: 227579590.

Date/timePositionNaut miles runAvg speedWind from/ knotsBaromVisibWave heightAir tempDewpointWater temp
2017-Oct-22 07:16N 47°38' W 002°46'0 0.0
2017-Oct-22 07:00N 47°38' W 002°46'0 0.1
2017-Oct-22 06:30N 47°38' W 002°46'3 5.1
2017-Oct-22 06:00N 47°37' W 002°49'2 4.5
2017-Oct-22 05:29N 47°35' W 002°51'  
2017-Oct-15 09:47N 47°35' W 002°51'0 0.0
2017-Oct-14 16:20N 47°35' W 002°52'0 0.0
2017-Oct-14 15:59N 47°35' W 002°52'1 2.6
2017-Oct-14 15:30N 47°35' W 002°53'2 4.4
2017-Oct-14 15:00N 47°33' W 002°55'3 5.2
2017-Oct-14 14:30N 47°30' W 002°57'2 4.4
2017-Oct-14 14:00N 47°28' W 002°58'2 4.7
2017-Oct-14 13:30N 47°26' W 002°59'2 4.0
2017-Oct-14 12:58N 47°24' W 003°00'1 0.9
2017-Oct-14 12:22N 47°24' W 002°60'0 0.0
2017-Oct-14 11:43N 47°24' W 002°60'0 0.0
2017-Oct-14 11:30N 47°24' W 002°60'1 2.7
2017-Oct-14 11:00N 47°25' W 002°59'3 6.5
2017-Oct-14 10:30N 47°28' W 002°57'3 5.2
2017-Oct-14 10:00N 47°30' W 002°56'2 4.1
2017-Oct-14 09:30N 47°32' W 002°55'2 4.4
2017-Oct-14 09:00N 47°34' W 002°54'  
Track history (hours):
 
Tides and Currents Weather Stations Pressure Air Temp Water Temp Dewpoint Dewpoint Depression Visibility Wind Speed Wind Dir Waves Ship Positions

Calico Skies

Last reported at 2017-Oct-22 07:16 UTC. Time now 2017-Nov-22 22:13 UTC.
Position N 47°38' W 002°46'.
Warning: this ship's position is 31 days out of date.

Length 13 m.

Type: Sailing vessel. MMSI: 227579590.

Date/timePositionNaut miles runAvg speedWind from/ knotsBaromVisibWave heightAir tempDewpointWater temp
2017-Oct-22 07:16N 47°38' W 002°46'0 0.0
2017-Oct-22 07:00N 47°38' W 002°46'0 0.1
2017-Oct-22 06:30N 47°38' W 002°46'3 5.1
2017-Oct-22 06:00N 47°37' W 002°49'2 4.5
2017-Oct-22 05:29N 47°35' W 002°51'  
2017-Oct-15 09:47N 47°35' W 002°51'0 0.0
2017-Oct-14 16:20N 47°35' W 002°52'0 0.0
2017-Oct-14 15:59N 47°35' W 002°52'1 2.6
2017-Oct-14 15:30N 47°35' W 002°53'2 4.4
2017-Oct-14 15:00N 47°33' W 002°55'3 5.2
2017-Oct-14 14:30N 47°30' W 002°57'2 4.4
2017-Oct-14 14:00N 47°28' W 002°58'2 4.7
2017-Oct-14 13:30N 47°26' W 002°59'2 4.0
2017-Oct-14 12:58N 47°24' W 003°00'1 0.9
2017-Oct-14 12:22N 47°24' W 002°60'0 0.0
2017-Oct-14 11:43N 47°24' W 002°60'0 0.0
2017-Oct-14 11:30N 47°24' W 002°60'1 2.7
2017-Oct-14 11:00N 47°25' W 002°59'3 6.5
2017-Oct-14 10:30N 47°28' W 002°57'3 5.2
2017-Oct-14 10:00N 47°30' W 002°56'2 4.1
2017-Oct-14 09:30N 47°32' W 002°55'2 4.4
2017-Oct-14 09:00N 47°34' W 002°54'  

Dump ship's entire track history